Time;durP1;ratioP1;P1;durP2;ratioP2;P2;SDS_P1;SDS_P2;PMS_P1;PMS_P2;Temp;Humidity;BMP_temperature;BMP_pressure;BME280_temperature;BME280_humidity;BME280_pressure;Samples;Min_cycle;Max_cycle;Signal;HPM_P1;HPM_P2
2024/04/09 00:00:13;;;;;;;5.10;3.67;;;;;;;16.16;100.00;100545.56;6632795;26;20278;-70
2024/04/09 00:03:39;;;;;;;4.97;3.47;;;;;;;16.15;100.00;100549.31;6637713;26;21012;-70
2024/04/09 00:07:02;;;;;;;3.33;3.03;;;;;;;16.21;100.00;100537.72;6635296;26;20772;-70
2024/04/09 00:10:24;;;;;;;3.50;3.20;;;;;;;16.27;100.00;100510.63;6618946;26;20287;-70
2024/04/09 00:13:47;;;;;;;4.30;3.90;;;;;;;16.23;100.00;100516.63;6610776;26;20324;-70
2024/04/09 00:17:07;;;;;;;4.40;4.00;;;;;;;16.25;100.00;100511.84;6613830;26;20535;-70
2024/04/09 00:20:33;;;;;;;4.90;3.20;;;;;;;16.14;100.00;100510.41;6626717;26;20262;-70
2024/04/09 00:23:56;;;;;;;5.53;4.27;;;;;;;16.02;100.00;100495.50;6637291;26;20273;-70
2024/04/09 00:27:18;;;;;;;6.30;3.93;;;;;;;15.95;100.00;100495.41;6623085;26;20386;-71
2024/04/09 00:30:39;;;;;;;5.83;4.33;;;;;;;16.10;100.00;100492.75;6618396;26;20269;-71
2024/04/09 00:34:02;;;;;;;5.23;3.57;;;;;;;16.02;100.00;100496.34;6636928;26;20314;-70
2024/04/09 00:37:27;;;;;;;5.60;4.40;;;;;;;15.92;100.00;100482.16;6632770;26;20266;-70
2024/04/09 00:40:49;;;;;;;7.50;5.53;;;;;;;15.96;100.00;100475.34;6629636;26;20266;-71
2024/04/09 00:44:09;;;;;;;4.07;3.67;;;;;;;15.97;100.00;100477.03;6644302;26;20258;-71
2024/04/09 00:47:32;;;;;;;4.97;4.47;;;;;;;15.92;100.00;100478.59;6628443;26;20277;-71
2024/04/09 00:50:52;;;;;;;6.00;4.63;;;;;;;16.02;100.00;100473.75;6625899;26;20274;-72
2024/04/09 00:54:18;;;;;;;7.57;4.20;;;;;;;16.11;100.00;100472.69;6626650;26;20293;-71
2024/04/09 00:57:39;;;;;;;7.37;5.10;;;;;;;16.13;100.00;100478.78;6626842;26;20275;-71
2024/04/09 01:01:03;;;;;;;5.17;4.77;;;;;;;16.13;100.00;100475.22;6624360;26;20329;-71
2024/04/09 01:04:23;;;;;;;7.00;3.30;;;;;;;16.10;100.00;100489.19;6629100;26;20293;-70
2024/04/09 01:07:46;;;;;;;7.93;4.27;;;;;;;16.09;100.00;100492.91;6619666;26;20989;-72
2024/04/09 01:11:12;;;;;;;4.80;3.37;;;;;;;16.03;100.00;100497.22;6628523;26;20635;-71
2024/04/09 01:14:31;;;;;;;6.17;4.53;;;;;;;16.05;100.00;100495.16;6641113;26;20745;-70
2024/04/09 01:17:54;;;;;;;4.93;3.80;;;;;;;16.00;100.00;100506.56;6627134;26;20524;-71
2024/04/09 01:21:14;;;;;;;4.13;3.73;;;;;;;15.78;100.00;100503.81;6633731;26;20274;-71
2024/04/09 01:24:39;;;;;;;4.17;3.73;;;;;;;15.53;100.00;100505.84;6648354;26;20266;-70
2024/04/09 01:27:59;;;;;;;6.97;4.13;;;;;;;15.75;100.00;100502.31;6629379;26;20270;-71
2024/04/09 01:31:22;;;;;;;7.67;4.60;;;;;;;15.56;100.00;100510.06;6629057;26;20856;-70
2024/04/09 01:34:42;;;;;;;6.70;4.77;;;;;;;15.57;100.00;100500.88;6639478;26;20318;-70
2024/04/09 01:38:04;;;;;;;7.43;5.23;;;;;;;15.76;100.00;100492.28;6636232;26;21464;-71
2024/04/09 01:41:29;;;;;;;4.20;3.77;;;;;;;15.81;100.00;100489.91;6634750;26;20269;-70
2024/04/09 01:44:49;;;;;;;7.83;3.50;;;;;;;15.89;100.00;100479.81;6643781;26;20312;-70
2024/04/09 01:48:12;;;;;;;6.70;5.03;;;;;;;15.99;100.00;100450.50;6623343;26;20269;-70
2024/04/09 01:51:32;;;;;;;4.67;3.80;;;;;;;16.05;100.00;100429.91;6613044;26;20514;-71
2024/04/09 01:54:55;;;;;;;8.70;4.00;;;;;;;16.07;100.00;100446.88;6630627;26;21601;-71
2024/04/09 01:58:20;;;;;;;4.60;3.93;;;;;;;16.11;100.00;100453.63;6633777;26;20274;-71
2024/04/09 02:01:41;;;;;;;5.20;3.13;;;;;;;16.06;100.00;100447.06;6604768;26;20274;-71
2024/04/09 02:05:04;;;;;;;4.07;3.30;;;;;;;16.01;100.00;100439.44;6630888;26;20269;-71
2024/04/09 02:08:24;;;;;;;4.77;3.50;;;;;;;16.00;100.00;100435.88;6635932;26;20278;-71
2024/04/09 02:11:48;;;;;;;5.87;4.17;;;;;;;16.04;100.00;100439.09;6624929;26;20278;-72
2024/04/09 02:15:12;;;;;;;5.93;4.37;;;;;;;16.18;100.00;100445.59;6612632;26;20671;-70
2024/04/09 02:18:35;;;;;;;4.97;4.33;;;;;;;16.17;100.00;100452.06;6625791;26;20539;-70
2024/04/09 02:21:56;;;;;;;7.20;4.20;;;;;;;16.08;100.00;100461.31;6593164;26;20345;-70
2024/04/09 02:25:18;;;;;;;4.83;3.63;;;;;;;16.08;100.00;100466.75;6625569;26;20273;-71
2024/04/09 02:28:38;;;;;;;5.73;3.57;;;;;;;16.19;100.00;100458.19;6631604;26;20855;-70
2024/04/09 02:32:03;;;;;;;6.43;3.77;;;;;;;16.15;100.00;100456.81;6621147;26;20623;-69
2024/04/09 02:35:24;;;;;;;4.57;3.33;;;;;;;15.97;100.00;100449.00;6614448;26;22334;-70
2024/04/09 02:38:46;;;;;;;10.23;3.77;;;;;;;16.08;100.00;100450.44;6631450;26;20265;-69
2024/04/09 02:42:13;;;;;;;6.47;5.03;;;;;;;16.09;100.00;100446.69;6615752;26;20265;-70
2024/04/09 02:45:35;;;;;;;8.80;4.17;;;;;;;16.08;100.00;100439.56;6625289;26;20664;-69
2024/04/09 02:49:00;;;;;;;3.70;3.10;;;;;;;15.97;100.00;100443.56;6623118;26;20266;-70
2024/04/09 02:52:20;;;;;;;4.97;3.67;;;;;;;16.02;100.00;100441.97;6594470;26;20270;-70
2024/04/09 02:55:43;;;;;;;8.23;4.07;;;;;;;15.97;100.00;100447.13;6621421;26;20325;-68
2024/04/09 02:59:03;;;;;;;8.23;4.77;;;;;;;16.01;100.00;100444.88;6629665;26;20491;-71
2024/04/09 03:02:26;;;;;;;5.63;4.40;;;;;;;16.10;100.00;100440.22;6621756;26;21027;-69
2024/04/09 03:05:51;;;;;;;4.90;3.83;;;;;;;16.06;100.00;100449.78;6619200;26;20277;-70
2024/04/09 03:09:11;;;;;;;9.03;4.43;;;;;;;15.80;100.00;100448.25;6629574;26;22329;-70
2024/04/09 03:12:33;;;;;;;7.67;3.77;;;;;;;15.92;100.00;100445.97;6623597;26;20266;-68
2024/04/09 03:15:55;;;;;;;7.37;4.83;;;;;;;15.94;100.00;100450.19;6609755;26;20687;-71
2024/04/09 03:19:18;;;;;;;11.73;4.80;;;;;;;15.96;100.00;100436.41;6624378;26;20270;-71
2024/04/09 03:22:41;;;;;;;5.13;4.50;;;;;;;15.95;100.00;100434.75;6632090;26;20326;-70
2024/04/09 03:26:05;;;;;;;5.37;4.07;;;;;;;15.97;100.00;100438.97;6629970;26;20277;-71
2024/04/09 03:29:28;;;;;;;5.40;3.83;;;;;;;15.94;100.00;100417.56;6638021;26;20904;-71
2024/04/09 03:32:51;;;;;;;5.07;3.50;;;;;;;16.05;100.00;100416.28;6629088;26;20741;-71
2024/04/09 03:36:13;;;;;;;8.60;4.43;;;;;;;16.07;100.00;100422.41;6633768;26;20263;-71
2024/04/09 03:39:40;;;;;;;5.23;3.93;;;;;;;16.02;100.00;100420.22;6637866;26;20262;-70
2024/04/09 03:43:02;;;;;;;6.57;4.10;;;;;;;16.04;100.00;100411.06;6627309;26;20275;-72
2024/04/09 03:46:26;;;;;;;4.30;3.87;;;;;;;16.00;100.00;100414.13;6633907;26;20269;-70
2024/04/09 03:49:49;;;;;;;6.03;4.40;;;;;;;16.10;100.00;100405.72;6648988;26;20266;-70
2024/04/09 03:53:13;;;;;;;8.57;4.77;;;;;;;16.03;100.00;100410.19;6638760;26;20566;-71
2024/04/09 03:56:38;;;;;;;8.57;4.57;;;;;;;15.97;100.00;100405.50;6631354;26;20891;-70
2024/04/09 03:59:58;;;;;;;4.07;3.60;;;;;;;16.04;100.00;100400.19;6638892;26;20471;-71
2024/04/09 04:03:20;;;;;;;5.20;4.13;;;;;;;16.14;100.00;100398.03;6635297;26;20270;-72
2024/04/09 04:06:43;;;;;;;5.20;3.53;;;;;;;16.16;100.00;100395.97;6613838;26;20307;-70
2024/04/09 04:10:03;;;;;;;6.07;4.27;;;;;;;16.12;100.00;100392.78;6621414;26;20267;-71
2024/04/09 04:13:30;;;;;;;6.87;4.70;;;;;;;16.08;100.00;100396.91;6621017;26;20274;-71
2024/04/09 04:16:50;;;;;;;10.83;9.23;;;;;;;16.12;100.00;100395.50;6607847;26;20355;-72
2024/04/09 04:20:13;;;;;;;5.30;4.20;;;;;;;15.73;100.00;100400.22;6632249;26;20266;-70
2024/04/09 04:23:33;;;;;;;10.57;9.30;;;;;;;15.87;100.00;100389.41;6631132;26;20265;-70
2024/04/09 04:26:55;;;;;;;17.80;13.63;;;;;;;15.94;100.00;100398.53;6632186;26;20269;-71
2024/04/09 04:30:22;;;;;;;10.17;6.60;;;;;;;15.71;100.00;100403.13;6634098;26;20262;-70
2024/04/09 04:33:45;;;;;;;7.93;5.67;;;;;;;15.71;100.00;100415.88;6647853;26;20265;-70
2024/04/09 04:37:05;;;;;;;8.90;4.67;;;;;;;15.47;100.00;100402.44;6625637;26;20293;-70
2024/04/09 04:40:27;;;;;;;13.23;6.07;;;;;;;15.23;100.00;100390.66;6623982;26;20683;-69
2024/04/09 04:43:47;;;;;;;6.37;4.77;;;;;;;15.57;100.00;100390.31;6631196;26;20471;-69
2024/04/09 04:47:12;;;;;;;6.43;4.63;;;;;;;15.56;100.00;100382.38;6613188;26;20274;-71
2024/04/09 04:50:31;;;;;;;8.33;5.20;;;;;;;15.47;100.00;100372.56;6622289;26;20761;-70
2024/04/09 04:53:53;;;;;;;11.33;5.43;;;;;;;15.72;100.00;100347.75;6631417;26;20279;-70
2024/04/09 04:57:16;;;;;;;8.33;4.80;;;;;;;15.94;100.00;100322.41;6634781;26;20269;-71
2024/04/09 05:00:39;;;;;;;9.17;5.00;;;;;;;16.02;100.00;100306.00;6601225;26;20930;-72
2024/04/09 05:04:06;;;;;;;9.00;4.90;;;;;;;15.99;100.00;100333.59;6603362;26;20269;-71
2024/04/09 05:07:26;;;;;;;11.50;4.43;;;;;;;15.84;100.00;100329.97;6601990;26;20338;-70
2024/04/09 05:10:48;;;;;;;11.40;4.40;;;;;;;16.10;100.00;100312.41;6603430;26;20287;-71
2024/04/09 05:14:08;;;;;;;4.93;4.20;;;;;;;16.30;100.00;100313.56;6631377;26;20269;-71
2024/04/09 05:17:30;;;;;;;4.63;3.90;;;;;;;16.46;100.00;100302.47;6615529;26;20270;-71
2024/04/09 05:20:55;;;;;;;5.50;4.23;;;;;;;16.54;100.00;100305.97;6605103;26;20263;-70
2024/04/09 05:24:18;;;;;;;6.53;4.37;;;;;;;16.62;100.00;100300.47;6643639;26;20278;-70
2024/04/09 05:27:38;;;;;;;13.83;4.53;;;;;;;16.79;100.00;100287.47;6634076;26;20281;-70
2024/04/09 05:31:01;;;;;;;9.63;4.90;;;;;;;16.91;100.00;100272.34;6634109;26;20274;-70
2024/04/09 05:34:20;;;;;;;6.20;4.67;;;;;;;17.03;100.00;100268.06;6618599;26;20345;-71
2024/04/09 05:37:46;;;;;;;6.03;4.30;;;;;;;17.08;100.00;100271.06;6635909;26;20301;-70
2024/04/09 05:41:05;;;;;;;6.00;3.97;;;;;;;17.21;100.00;100282.09;6637129;26;20326;-70
2024/04/09 05:44:28;;;;;;;8.97;5.10;;;;;;;17.16;100.00;100290.00;6630843;26;20616;-71
2024/04/09 05:47:50;;;;;;;10.55;4.55;;;;;;;17.16;100.00;100283.72;6629616;26;20270;-71
2024/04/09 05:51:13;;;;;;;6.63;4.60;;;;;;;17.02;100.00;100298.22;6623868;26;20305;-72
2024/04/09 05:54:39;;;;;;;10.07;4.53;;;;;;;17.08;100.00;100286.56;6631400;26;20269;-71
2024/04/09 05:58:06;;;;;;;8.03;4.73;;;;;;;17.15;100.00;100276.56;6626701;26;20262;-70
2024/04/09 06:01:26;;;;;;;7.28;5.07;;;;;;;17.26;100.00;100278.78;6618029;26;20261;-71
2024/04/09 06:04:49;;;;;;;6.00;5.40;;;;;;;17.24;100.00;100275.41;6625034;26;20281;-71
2024/04/09 06:08:11;;;;;;;9.85;4.53;;;;;;;17.10;100.00;100285.34;6630742;26;20277;-71
2024/04/09 06:11:34;;;;;;;9.13;4.88;;;;;;;17.41;100.00;100268.69;6626384;26;20261;-71
2024/04/09 06:14:56;;;;;;;11.35;5.78;;;;;;;17.52;100.00;100277.19;6631032;26;20285;-72
2024/04/09 06:18:17;;;;;;;12.38;5.95;;;;;;;17.68;100.00;100276.09;6626790;26;20603;-71
2024/04/09 06:21:40;;;;;;;7.00;5.15;;;;;;;17.70;100.00;100292.25;6630203;26;20281;-71
2024/04/09 06:24:59;;;;;;;5.10;4.60;;;;;;;17.60;100.00;100306.22;6633264;26;20820;-71
2024/04/09 06:28:25;;;;;;;10.38;4.82;;;;;;;17.55;100.00;100305.94;6631178;26;20265;-70
2024/04/09 06:31:47;;;;;;;9.77;5.15;;;;;;;17.04;100.00;100304.31;6620292;26;21676;-71
2024/04/09 06:35:11;;;;;;;5.38;4.85;;;;;;;16.82;100.00;100335.25;6620974;26;20277;-71
2024/04/09 06:38:31;;;;;;;6.05;5.32;;;;;;;16.90;100.00;100330.53;6630362;26;20282;-71
2024/04/09 06:41:53;;;;;;;11.83;5.77;;;;;;;17.03;100.00;100404.25;6625234;26;20262;-72
2024/04/09 06:45:18;;;;;;;10.27;5.70;;;;;;;16.63;100.00;100402.00;6627889;26;22034;-71
2024/04/09 06:48:41;;;;;;;8.57;4.60;;;;;;;16.59;100.00;100444.22;6618830;26;20285;-71
2024/04/09 06:52:03;;;;;;;8.90;5.60;;;;;;;16.69;100.00;100447.50;6616640;26;20796;-71
2024/04/09 06:55:23;;;;;;;8.17;4.87;;;;;;;16.71;100.00;100437.28;6608238;26;21708;-70
2024/04/09 06:58:47;;;;;;;6.60;4.53;;;;;;;16.87;100.00;100428.97;6645784;26;20325;-71
2024/04/09 07:02:10;;;;;;;10.20;4.63;;;;;;;17.05;100.00;100412.22;6622865;26;20282;-71
2024/04/09 07:05:32;;;;;;;17.17;5.10;;;;;;;17.30;100.00;100417.19;6624894;26;20269;-71
2024/04/09 07:08:52;;;;;;;7.83;4.50;;;;;;;17.40;100.00;100419.59;6617967;26;20278;-70
2024/04/09 07:12:14;;;;;;;11.40;4.43;;;;;;;17.50;100.00;100421.00;6621672;26;20269;-71
2024/04/09 07:15:34;;;;;;;12.50;4.40;;;;;;;17.55;100.00;100429.47;6600418;26;20321;-71
2024/04/09 07:18:59;;;;;;;8.27;4.47;;;;;;;17.64;100.00;100419.28;6596610;26;20298;-71
2024/04/09 07:22:19;;;;;;;10.47;4.80;;;;;;;17.69;100.00;100435.06;6622079;26;20265;-71
2024/04/09 07:25:41;;;;;;;10.57;4.20;;;;;;;17.79;100.00;100441.91;6638892;26;20897;-71
2024/04/09 07:29:04;;;;;;;9.10;4.23;;;;;;;17.84;100.00;100422.22;6639931;26;20269;-71
2024/04/09 07:32:27;;;;;;;11.83;4.97;;;;;;;18.13;100.00;100412.03;6631215;26;20281;-71
2024/04/09 07:35:57;;;;;;;10.27;4.80;;;;;;;18.17;100.00;100426.09;6629724;26;20253;-71
2024/04/09 07:39:19;;;;;;;13.38;4.15;;;;;;;18.37;100.00;100421.69;6636398;26;20314;-71
2024/04/09 07:42:39;;;;;;;13.95;4.60;;;;;;;18.62;100.00;100414.78;6621815;26;20305;-72
2024/04/09 07:46:02;;;;;;;8.27;4.40;;;;;;;18.39;100.00;100446.91;6626368;26;20271;-71
2024/04/09 07:49:22;;;;;;;9.00;4.30;;;;;;;18.52;100.00;100446.19;6627272;26;20903;-71
2024/04/09 07:52:46;;;;;;;11.88;5.18;;;;;;;18.53;100.00;100450.59;6625921;26;20273;-72
2024/04/09 07:56:08;;;;;;;7.90;3.80;;;;;;;18.51;100.00;100441.75;6611701;26;20269;-71
2024/04/09 07:59:30;;;;;;;10.45;4.97;;;;;;;18.55;100.00;100449.34;6635661;26;20302;-70
2024/04/09 08:02:53;;;;;;;7.03;4.30;;;;;;;18.52;100.00;100443.47;6618704;26;20285;-70
2024/04/09 08:06:13;;;;;;;13.57;4.80;;;;;;;18.57;100.00;100451.88;6618746;26;20262;-70
2024/04/09 08:09:38;;;;;;;6.03;3.70;;;;;;;18.62;100.00;100436.63;6636683;26;20289;-71
2024/04/09 08:13:00;;;;;;;10.27;5.00;;;;;;;18.55;100.00;100441.16;6627996;26;20321;-71
2024/04/09 08:16:23;;;;;;;12.00;4.70;;;;;;;18.60;100.00;100438.69;6616750;26;20288;-71
2024/04/09 08:19:43;;;;;;;8.45;4.20;;;;;;;18.73;100.00;100455.16;6638410;26;20603;-71
2024/04/09 08:23:06;;;;;;;10.38;3.70;;;;;;;18.71;100.00;100453.69;6630278;26;20269;-71
2024/04/09 08:26:31;;;;;;;6.18;3.28;;;;;;;18.58;100.00;100462.63;6622939;26;20627;-70
2024/04/09 08:29:53;;;;;;;7.32;3.00;;;;;;;18.93;100.00;100447.13;6635479;26;20274;-70
2024/04/09 08:33:17;;;;;;;6.05;2.53;;;;;;;18.86;100.00;100443.47;6642027;26;20265;-71
2024/04/09 08:36:40;;;;;;;3.83;2.72;;;;;;;19.18;100.00;100431.91;6621131;26;20263;-71
2024/04/09 08:40:03;;;;;;;8.02;3.08;;;;;;;19.65;100.00;100442.03;6612555;26;20798;-71
2024/04/09 08:43:29;;;;;;;2.75;2.30;;;;;;;19.58;100.00;100466.63;6624822;26;20627;-71
2024/04/09 08:46:51;;;;;;;4.50;2.85;;;;;;;19.77;100.00;100478.69;6624615;26;20270;-71
2024/04/09 08:50:14;;;;;;;4.32;2.88;;;;;;;19.76;100.00;100510.66;6629949;26;20258;-71
2024/04/09 08:53:40;;;;;;;6.28;2.22;;;;;;;19.82;100.00;100509.00;6628972;26;22250;-71
2024/04/09 08:57:05;;;;;;;11.65;3.38;;;;;;;20.41;100.00;100503.72;6634106;26;21006;-71
2024/04/09 09:00:30;;;;;;;3.72;2.30;;;;;;;20.79;100.00;100496.56;6624973;26;20896;-70
2024/04/09 09:03:50;;;;;;;6.57;3.13;;;;;;;20.57;100.00;100473.16;6630426;26;20266;-71
2024/04/09 09:07:16;;;;;;;5.53;2.72;;;;;;;21.00;100.00;100457.13;6621981;26;20265;-71
2024/04/09 09:10:40;;;;;;;4.03;2.53;;;;;;;20.48;100.00;100455.28;6623519;26;20273;-71
2024/04/09 09:14:06;;;;;;;4.15;1.67;;;;;;;20.80;100.00;100459.88;6645854;26;20281;-71
2024/04/09 09:17:31;;;;;;;9.88;2.92;;;;;;;20.31;100.00;100495.06;6619898;26;20282;-71
2024/04/09 09:20:58;;;;;;;4.10;2.92;;;;;;;20.24;100.00;100543.47;6632615;26;20279;-72
2024/04/09 09:24:21;;;;;;;2.75;2.00;;;;;;;20.77;100.00;100560.84;6609015;26;20267;-71
2024/04/09 09:27:41;;;;;;;2.92;2.17;;;;;;;20.57;100.00;100561.66;6642696;26;20624;-72
2024/04/09 09:31:03;;;;;;;5.40;3.42;;;;;;;19.92;100.00;100562.28;6633898;26;20261;-71
2024/04/09 09:34:35;;;;;;;3.50;2.38;;;;;;;19.87;100.00;100551.13;6641334;26;20282;-71
2024/04/09 09:37:59;;;;;;;7.88;3.63;;;;;;;19.40;100.00;100555.72;6598528;26;20261;-72
2024/04/09 09:41:20;;;;;;;4.20;2.08;;;;;;;18.92;100.00;100547.34;6628798;26;20277;-71
2024/04/09 09:44:45;;;;;;;4.07;2.47;;;;;;;19.28;100.00;100528.06;6638912;26;20274;-71
2024/04/09 09:48:10;;;;;;;5.35;1.88;;;;;;;19.12;100.00;100563.91;6622671;26;20274;-72
2024/04/09 09:51:32;;;;;;;3.95;2.22;;;;;;;18.84;100.00;100579.44;6630641;26;20270;-72
2024/04/09 09:54:55;;;;;;;2.42;2.22;;;;;;;18.65;100.00;100610.97;6641748;26;20271;-72
2024/04/09 09:58:19;;;;;;;4.47;3.22;;;;;;;18.22;100.00;100617.41;6641815;26;20261;-71
2024/04/09 10:01:48;;;;;;;6.53;2.47;;;;;;;18.31;100.00;100636.19;6624362;26;20595;-71
2024/04/09 10:05:10;;;;;;;3.60;1.92;;;;;;;18.22;100.00;100644.69;6623413;26;20265;-70
2024/04/09 10:08:33;;;;;;;3.50;1.93;;;;;;;18.36;100.00;100608.31;6642865;26;20682;-70
2024/04/09 10:11:55;;;;;;;3.20;2.10;;;;;;;18.63;100.00;100632.16;6618721;26;20726;-71
2024/04/09 10:15:17;;;;;;;4.50;2.70;;;;;;;18.64;100.00;100631.16;6627729;26;20273;-71
2024/04/09 10:18:42;;;;;;;3.17;2.28;;;;;;;18.73;100.00;100673.66;6613754;26;20282;-70
2024/04/09 10:22:01;;;;;;;3.47;2.15;;;;;;;18.82;100.00;100637.00;6610948;26;20265;-70
2024/04/09 10:25:28;;;;;;;8.57;2.53;;;;;;;18.85;100.00;100635.75;6602882;26;20278;-70
2024/04/09 10:28:47;;;;;;;6.35;2.47;;;;;;;18.83;100.00;100651.50;6605649;26;20283;-70
2024/04/09 10:32:15;;;;;;;3.00;2.80;;;;;;;18.75;100.00;100654.38;6579710;26;20270;-70
2024/04/09 10:35:35;;;;;;;6.15;3.00;;;;;;;18.69;100.00;100655.16;6608610;26;20274;-71
2024/04/09 10:39:00;;;;;;;6.65;2.38;;;;;;;18.38;100.00;100650.78;6619580;26;20329;-71
2024/04/09 10:42:22;;;;;;;4.97;2.70;;;;;;;18.37;100.00;100650.97;6614753;26;20485;-71
2024/04/09 10:45:45;;;;;;;4.43;2.65;;;;;;;18.11;100.00;100656.94;6620306;26;20321;-71
2024/04/09 10:49:08;;;;;;;4.15;2.55;;;;;;;17.87;100.00;100670.88;6627226;26;21909;-71
2024/04/09 10:52:30;;;;;;;7.05;2.95;;;;;;;17.84;100.00;100664.94;6593326;26;20270;-71
2024/04/09 10:56:03;;;;;;;7.55;3.35;;;;;;;17.88;100.00;100688.06;6600338;26;20279;-71
2024/04/09 10:59:25;;;;;;;8.40;3.17;;;;;;;18.15;100.00;100684.69;6633800;26;20283;-70
2024/04/09 11:02:49;;;;;;;6.40;2.53;;;;;;;18.51;100.00;100682.03;6579857;26;20266;-71
2024/04/09 11:06:13;;;;;;;7.38;3.05;;;;;;;18.52;100.00;100670.06;6601985;26;20302;-71
2024/04/09 11:09:36;;;;;;;3.08;2.30;;;;;;;18.50;100.00;100685.81;6627076;26;20482;-71
2024/04/09 11:12:57;;;;;;;4.97;2.95;;;;;;;18.06;100.00;100696.75;6619620;26;20277;-71
2024/04/09 11:16:22;;;;;;;5.53;2.60;;;;;;;17.98;100.00;100708.59;6620756;26;21615;-71
2024/04/09 11:19:42;;;;;;;4.80;2.42;;;;;;;17.90;100.00;100705.13;6625719;26;20265;-71
2024/04/09 11:23:05;;;;;;;4.32;3.53;;;;;;;17.89;100.00;100698.81;6628257;26;20277;-71
2024/04/09 11:26:29;;;;;;;3.03;2.60;;;;;;;17.82;100.00;100705.19;6619461;26;20317;-71
2024/04/09 11:29:48;;;;;;;6.25;3.22;;;;;;;17.49;100.00;100721.00;6628431;26;20261;-70
2024/04/09 11:33:13;;;;;;;3.33;3.10;;;;;;;17.41;100.00;100729.25;6612263;26;20281;-71
2024/04/09 11:36:37;;;;;;;3.75;3.45;;;;;;;17.79;100.00;100711.91;6610828;26;20717;-71
2024/04/09 11:40:00;;;;;;;4.85;3.63;;;;;;;17.88;100.00;100723.53;6620618;26;20273;-71
2024/04/09 11:43:23;;;;;;;4.43;2.93;;;;;;;17.98;100.00;100735.03;6627741;26;20273;-71
2024/04/09 11:46:45;;;;;;;4.60;3.50;;;;;;;18.17;100.00;100716.22;6611206;26;20251;-71
2024/04/09 11:50:10;;;;;;;5.90;3.60;;;;;;;18.41;100.00;100693.22;6624702;26;20277;-70
2024/04/09 11:53:32;;;;;;;3.17;2.95;;;;;;;18.75;100.00;100665.28;6627514;26;20265;-71
2024/04/09 11:56:55;;;;;;;4.07;3.20;;;;;;;18.32;100.00;100688.91;6587328;26;20258;-70
2024/04/09 12:00:18;;;;;;;4.82;3.88;;;;;;;18.18;100.00;100712.47;6595628;26;20267;-70
2024/04/09 12:03:41;;;;;;;4.55;3.10;;;;;;;18.27;100.00;100737.78;6619658;26;22760;-72
2024/04/09 12:07:09;;;;;;;4.05;3.63;;;;;;;18.53;100.00;100737.28;6590945;26;20324;-71
2024/04/09 12:10:29;;;;;;;5.57;3.15;;;;;;;18.73;100.00;100736.47;6599171;26;20937;-71
2024/04/09 12:13:51;;;;;;;3.75;3.28;;;;;;;18.94;100.00;100743.88;6587590;26;20289;-72
2024/04/09 12:17:14;;;;;;;5.22;4.32;;;;;;;18.62;100.00;100755.25;6608834;26;20312;-71
2024/04/09 12:20:37;;;;;;;3.78;3.47;;;;;;;18.18;100.00;100755.25;6632436;26;20526;-72
2024/04/09 12:24:03;;;;;;;3.83;3.47;;;;;;;17.85;100.00;100754.78;6630238;26;20290;-72
2024/04/09 12:27:23;;;;;;;5.13;3.88;;;;;;;17.80;100.00;100756.34;6631563;26;20270;-72
2024/04/09 12:30:45;;;;;;;7.15;4.47;;;;;;;17.36;100.00;100772.56;6639153;26;20263;-71
2024/04/09 12:34:08;;;;;;;5.00;3.85;;;;;;;16.90;100.00;100789.94;6627774;26;20278;-71
2024/04/09 12:37:30;;;;;;;2.83;2.55;;;;;;;16.82;100.00;100807.13;6631442;26;20663;-72
2024/04/09 12:40:55;;;;;;;3.50;2.20;;;;;;;16.12;100.00;100808.91;6631765;26;20515;-71
2024/04/09 12:44:16;;;;;;;2.13;1.87;;;;;;;16.13;100.00;100817.91;6638145;26;20274;-71
2024/04/09 12:47:38;;;;;;;2.30;1.50;;;;;;;15.87;100.00;100824.41;6621471;26;20326;-72
2024/04/09 12:51:01;;;;;;;2.03;1.70;;;;;;;15.85;100.00;100834.59;6625722;26;20356;-71
2024/04/09 12:54:23;;;;;;;1.47;1.33;;;;;;;15.82;100.00;100829.53;6629455;26;20262;-72
2024/04/09 12:57:48;;;;;;;3.07;2.23;;;;;;;15.88;100.00;100828.84;6612170;26;20704;-70
2024/04/09 13:01:08;;;;;;;2.20;2.10;;;;;;;15.97;100.00;100838.69;6613385;26;20286;-72
2024/04/09 13:04:31;;;;;;;2.63;2.43;;;;;;;15.82;100.00;100843.13;6635831;26;20277;-72
2024/04/09 13:07:51;;;;;;;3.27;2.70;;;;;;;16.10;100.00;100842.75;6617026;26;21718;-71
2024/04/09 13:11:13;;;;;;;4.53;4.13;;;;;;;15.85;100.00;100861.78;6627491;26;20277;-71
2024/04/09 13:14:38;;;;;;;3.43;3.13;;;;;;;15.78;100.00;100879.81;6601322;26;20278;-72
2024/04/09 13:17:58;;;;;;;4.33;3.20;;;;;;;15.48;100.00;100885.06;6616244;26;20741;-71
2024/04/09 13:21:22;;;;;;;2.77;2.57;;;;;;;15.17;100.00;100948.09;6630569;26;20695;-72
2024/04/09 13:24:42;;;;;;;2.70;2.50;;;;;;;15.23;100.00;100894.13;6646509;26;20273;-71
2024/04/09 13:28:04;;;;;;;3.40;3.10;;;;;;;15.06;100.00;100902.22;6637897;26;20333;-72
2024/04/09 13:31:29;;;;;;;3.53;2.93;;;;;;;15.01;100.00;100911.88;6611538;26;20269;-71
2024/04/09 13:34:49;;;;;;;3.17;2.47;;;;;;;14.95;100.00;100926.09;6639212;26;20266;-71
2024/04/09 13:38:11;;;;;;;2.33;2.10;;;;;;;14.98;100.00;100942.06;6635928;26;20321;-71
2024/04/09 13:41:31;;;;;;;8.27;3.20;;;;;;;14.54;100.00;100932.34;6633132;26;20273;-69
2024/04/09 13:44:53;;;;;;;1.47;1.37;;;;;;;13.79;100.00;100947.28;6642190;26;20261;-69
2024/04/09 13:48:16;;;;;;;1.60;1.50;;;;;;;13.74;100.00;100967.75;6635472;26;20282;-70
2024/04/09 13:51:38;;;;;;;2.20;1.53;;;;;;;13.56;100.00;100981.25;6633647;26;20261;-71
2024/04/09 13:55:02;;;;;;;1.40;1.00;;;;;;;13.12;100.00;100991.06;6618556;26;20262;-70
2024/04/09 13:58:23;;;;;;;1.73;1.00;;;;;;;13.38;100.00;100996.63;6628552;26;20625;-71
2024/04/09 14:01:45;;;;;;;2.27;1.43;;;;;;;13.17;100.00;101006.84;6613228;26;20273;-70
2024/04/09 14:05:10;;;;;;;3.53;1.87;;;;;;;13.04;100.00;101007.19;6633345;26;20281;-70
2024/04/09 14:08:31;;;;;;;2.37;1.20;;;;;;;13.25;100.00;101002.41;6633975;26;20278;-70
2024/04/09 14:11:53;;;;;;;1.90;1.60;;;;;;;13.09;100.00;101002.19;6620651;26;20516;-70
2024/04/09 14:15:15;;;;;;;4.00;1.30;;;;;;;14.11;100.00;100998.25;6634059;26;20281;-81
2024/04/09 14:18:40;;;;;;;1.30;1.20;;;;;;;13.77;100.00;100975.56;6635602;26;20991;-81
2024/04/09 14:22:03;;;;;;;1.93;1.60;;;;;;;13.50;100.00;100981.88;6630099;26;20280;-79
2024/04/09 14:25:26;;;;;;;2.13;1.43;;;;;;;13.54;100.00;100985.97;6634887;26;20317;-83
2024/04/09 14:28:45;;;;;;;3.07;2.03;;;;;;;12.93;100.00;100983.00;6637850;26;20262;-81
2024/04/09 14:32:08;;;;;;;2.17;1.53;;;;;;;12.82;100.00;100984.03;6626056;26;20296;-78
2024/04/09 14:35:28;;;;;;;1.40;1.30;;;;;;;12.69;100.00;100990.75;6639691;26;20383;-79
2024/04/09 14:38:53;;;;;;;1.07;0.97;;;;;;;12.57;100.00;100984.69;6648795;26;20647;-78
2024/04/09 14:42:13;;;;;;;2.63;1.77;;;;;;;12.79;100.00;100984.31;6638414;26;21775;-78
2024/04/09 14:45:36;;;;;;;1.67;1.13;;;;;;;12.45;100.00;100993.97;6635591;26;20269;-76
2024/04/09 14:48:56;;;;;;;2.23;1.17;;;;;;;12.40;100.00;100987.28;6628775;26;20599;-78
2024/04/09 14:52:18;;;;;;;1.03;0.90;;;;;;;12.61;100.00;100983.41;6594917;26;20270;-73
2024/04/09 14:55:41;;;;;;;1.40;1.23;;;;;;;12.97;100.00;100997.09;6621067;26;20270;-74
2024/04/09 14:59:03;;;;;;;2.23;1.37;;;;;;;12.80;100.00;101009.53;6619480;26;20323;-74
2024/04/09 15:02:25;;;;;;;0.97;0.97;;;;;;;12.59;100.00;101000.75;6611489;26;20651;-73
2024/04/09 15:05:54;;;;;;;1.43;1.27;;;;;;;12.57;100.00;101005.47;6630619;26;20544;-74
2024/04/09 15:09:16;;;;;;;2.20;1.10;;;;;;;12.83;100.00;101003.81;6641405;26;21147;-73
2024/04/09 15:12:45;;;;;;;2.93;0.90;;;;;;;12.78;100.00;101008.84;6629133;26;20262;-74
2024/04/09 15:16:05;;;;;;;3.50;1.33;;;;;;;12.91;100.00;101000.38;6628950;26;20542;-73
2024/04/09 15:19:28;;;;;;;3.00;1.13;;;;;;;12.81;100.00;101019.34;6638853;26;20607;-72
2024/04/09 15:22:50;;;;;;;2.20;1.60;;;;;;;12.68;100.00;101006.13;6638326;26;20616;-72
2024/04/09 15:26:13;;;;;;;1.63;1.20;;;;;;;12.65;100.00;100998.34;6626385;26;20272;-73
2024/04/09 15:29:36;;;;;;;2.43;1.60;;;;;;;12.63;100.00;101011.16;6644354;26;20495;-73